sensor_id;sensor_type;location;lat;lon;timestamp;P1;durP1;ratioP1;P2;durP2;ratioP2
7901;SDS011;3996;49.674;10.716;2022-12-24T00:00:30;6.70;;;1.67;;
7901;SDS011;3996;49.674;10.716;2022-12-24T00:02:55;2.43;;;1.27;;
7901;SDS011;3996;49.674;10.716;2022-12-24T00:05:21;7.00;;;1.63;;
7901;SDS011;3996;49.674;10.716;2022-12-24T00:07:46;4.27;;;1.57;;
7901;SDS011;3996;49.674;10.716;2022-12-24T00:10:12;5.53;;;1.30;;
7901;SDS011;3996;49.674;10.716;2022-12-24T00:12:38;2.60;;;1.30;;
7901;SDS011;3996;49.674;10.716;2022-12-24T00:15:04;3.87;;;1.57;;
7901;SDS011;3996;49.674;10.716;2022-12-24T00:17:30;4.70;;;1.87;;
7901;SDS011;3996;49.674;10.716;2022-12-24T00:19:56;2.63;;;1.50;;
7901;SDS011;3996;49.674;10.716;2022-12-24T00:22:22;3.17;;;1.53;;
7901;SDS011;3996;49.674;10.716;2022-12-24T00:24:47;5.60;;;1.57;;
7901;SDS011;3996;49.674;10.716;2022-12-24T00:27:13;2.50;;;1.20;;
7901;SDS011;3996;49.674;10.716;2022-12-24T00:29:38;5.07;;;1.60;;
7901;SDS011;3996;49.674;10.716;2022-12-24T00:32:04;6.40;;;1.70;;
7901;SDS011;3996;49.674;10.716;2022-12-24T00:34:34;3.07;;;1.30;;
7901;SDS011;3996;49.674;10.716;2022-12-24T00:37:00;6.23;;;2.33;;
7901;SDS011;3996;49.674;10.716;2022-12-24T00:39:25;5.97;;;1.60;;
7901;SDS011;3996;49.674;10.716;2022-12-24T00:41:51;4.33;;;1.70;;
7901;SDS011;3996;49.674;10.716;2022-12-24T00:44:16;5.10;;;1.47;;
7901;SDS011;3996;49.674;10.716;2022-12-24T00:46:42;7.93;;;2.03;;
7901;SDS011;3996;49.674;10.716;2022-12-24T00:49:08;3.80;;;1.50;;
7901;SDS011;3996;49.674;10.716;2022-12-24T00:51:35;5.00;;;1.50;;
7901;SDS011;3996;49.674;10.716;2022-12-24T00:54:01;5.27;;;1.90;;
7901;SDS011;3996;49.674;10.716;2022-12-24T00:56:27;8.17;;;2.30;;
7901;SDS011;3996;49.674;10.716;2022-12-24T00:58:52;8.20;;;2.07;;
7901;SDS011;3996;49.674;10.716;2022-12-24T01:01:19;5.03;;;1.83;;
7901;SDS011;3996;49.674;10.716;2022-12-24T01:03:44;7.97;;;2.13;;
7901;SDS011;3996;49.674;10.716;2022-12-24T01:06:15;6.30;;;1.80;;
7901;SDS011;3996;49.674;10.716;2022-12-24T01:08:43;6.70;;;1.93;;
7901;SDS011;3996;49.674;10.716;2022-12-24T01:37:45;7.73;;;2.37;;
7901;SDS011;3996;49.674;10.716;2022-12-24T01:50:14;9.10;;;2.17;;
7901;SDS011;3996;49.674;10.716;2022-12-24T01:58:50;8.67;;;2.20;;
7901;SDS011;3996;49.674;10.716;2022-12-24T08:21:34;12.60;;;3.00;;
7901;SDS011;3996;49.674;10.716;2022-12-24T08:23:59;13.77;;;3.20;;
7901;SDS011;3996;49.674;10.716;2022-12-24T08:26:25;15.60;;;3.57;;
7901;SDS011;3996;49.674;10.716;2022-12-24T08:28:56;10.73;;;2.93;;
7901;SDS011;3996;49.674;10.716;2022-12-24T08:31:22;12.93;;;3.23;;
7901;SDS011;3996;49.674;10.716;2022-12-24T08:33:48;8.93;;;2.93;;
7901;SDS011;3996;49.674;10.716;2022-12-24T08:36:13;9.93;;;3.53;;
7901;SDS011;3996;49.674;10.716;2022-12-24T08:38:39;8.50;;;3.30;;
7901;SDS011;3996;49.674;10.716;2022-12-24T08:41:04;11.13;;;3.40;;
7901;SDS011;3996;49.674;10.716;2022-12-24T08:43:30;12.97;;;3.57;;
7901;SDS011;3996;49.674;10.716;2022-12-24T08:46:00;14.40;;;4.33;;
7901;SDS011;3996;49.674;10.716;2022-12-24T08:48:30;16.33;;;3.00;;
7901;SDS011;3996;49.674;10.716;2022-12-24T08:50:56;12.50;;;3.70;;
7901;SDS011;3996;49.674;10.716;2022-12-24T08:53:23;14.93;;;3.33;;
7901;SDS011;3996;49.674;10.716;2022-12-24T08:55:49;15.07;;;3.43;;
7901;SDS011;3996;49.674;10.716;2022-12-24T08:58:14;8.03;;;2.80;;
7901;SDS011;3996;49.674;10.716;2022-12-24T09:00:40;9.63;;;3.13;;
7901;SDS011;3996;49.674;10.716;2022-12-24T09:03:05;14.53;;;3.20;;
7901;SDS011;3996;49.674;10.716;2022-12-24T09:05:31;15.90;;;3.43;;
7901;SDS011;3996;49.674;10.716;2022-12-24T09:07:58;13.80;;;3.60;;
7901;SDS011;3996;49.674;10.716;2022-12-24T09:10:23;12.27;;;3.57;;
7901;SDS011;3996;49.674;10.716;2022-12-24T09:12:49;11.37;;;3.63;;
7901;SDS011;3996;49.674;10.716;2022-12-24T09:15:15;16.07;;;5.27;;
7901;SDS011;3996;49.674;10.716;2022-12-24T09:17:41;13.30;;;3.93;;
7901;SDS011;3996;49.674;10.716;2022-12-24T09:20:06;12.67;;;3.67;;
7901;SDS011;3996;49.674;10.716;2022-12-24T09:22:33;15.20;;;3.90;;
7901;SDS011;3996;49.674;10.716;2022-12-24T09:25:00;10.30;;;3.43;;
7901;SDS011;3996;49.674;10.716;2022-12-24T09:27:29;15.67;;;3.97;;
7901;SDS011;3996;49.674;10.716;2022-12-24T09:29:55;10.63;;;3.53;;
7901;SDS011;3996;49.674;10.716;2022-12-24T09:32:21;13.10;;;3.93;;
7901;SDS011;3996;49.674;10.716;2022-12-24T09:34:46;17.20;;;3.80;;
7901;SDS011;3996;49.674;10.716;2022-12-24T09:37:12;12.57;;;3.23;;
7901;SDS011;3996;49.674;10.716;2022-12-24T09:39:37;11.83;;;3.10;;
7901;SDS011;3996;49.674;10.716;2022-12-24T09:44:55;9.77;;;2.90;;
7901;SDS011;3996;49.674;10.716;2022-12-24T09:47:38;13.13;;;3.20;;
7901;SDS011;3996;49.674;10.716;2022-12-24T09:53:19;14.43;;;3.73;;
7901;SDS011;3996;49.674;10.716;2022-12-24T09:56:02;10.90;;;3.43;;
7901;SDS011;3996;49.674;10.716;2022-12-24T09:58:34;10.43;;;3.47;;
7901;SDS011;3996;49.674;10.716;2022-12-24T10:01:04;10.40;;;3.00;;
7901;SDS011;3996;49.674;10.716;2022-12-24T10:03:30;12.43;;;3.60;;
7901;SDS011;3996;49.674;10.716;2022-12-24T10:06:02;15.17;;;3.40;;
7901;SDS011;3996;49.674;10.716;2022-12-24T10:11:32;13.60;;;3.40;;
7901;SDS011;3996;49.674;10.716;2022-12-24T10:25:19;10.03;;;4.00;;
7901;SDS011;3996;49.674;10.716;2022-12-24T10:27:46;9.53;;;3.50;;
7901;SDS011;3996;49.674;10.716;2022-12-24T10:30:16;13.00;;;3.20;;
7901;SDS011;3996;49.674;10.716;2022-12-24T10:32:47;13.90;;;3.73;;
7901;SDS011;3996;49.674;10.716;2022-12-24T10:37:41;14.97;;;3.13;;
7901;SDS011;3996;49.674;10.716;2022-12-24T10:40:23;13.47;;;3.97;;
7901;SDS011;3996;49.674;10.716;2022-12-24T10:42:55;16.57;;;4.20;;
7901;SDS011;3996;49.674;10.716;2022-12-24T10:45:22;13.10;;;2.90;;
7901;SDS011;3996;49.674;10.716;2022-12-24T10:47:50;11.03;;;3.37;;
7901;SDS011;3996;49.674;10.716;2022-12-24T10:50:30;15.83;;;3.57;;
7901;SDS011;3996;49.674;10.716;2022-12-24T10:53:13;14.73;;;3.40;;
7901;SDS011;3996;49.674;10.716;2022-12-24T10:55:46;18.83;;;3.50;;
7901;SDS011;3996;49.674;10.716;2022-12-24T10:58:14;15.00;;;3.43;;
7901;SDS011;3996;49.674;10.716;2022-12-24T11:00:47;13.57;;;3.53;;
7901;SDS011;3996;49.674;10.716;2022-12-24T11:05:43;13.70;;;3.40;;
7901;SDS011;3996;49.674;10.716;2022-12-24T11:10:39;15.50;;;3.43;;
7901;SDS011;3996;49.674;10.716;2022-12-24T11:13:17;13.87;;;3.30;;
7901;SDS011;3996;49.674;10.716;2022-12-24T11:18:53;11.27;;;3.20;;
7901;SDS011;3996;49.674;10.716;2022-12-24T11:21:36;14.33;;;3.37;;
7901;SDS011;3996;49.674;10.716;2022-12-24T11:26:36;10.80;;;3.50;;
7901;SDS011;3996;49.674;10.716;2022-12-24T11:29:14;15.70;;;3.57;;
7901;SDS011;3996;49.674;10.716;2022-12-24T11:31:44;10.10;;;3.43;;
7901;SDS011;3996;49.674;10.716;2022-12-24T11:37:05;14.07;;;3.47;;
7901;SDS011;3996;49.674;10.716;2022-12-24T11:39:38;13.73;;;4.50;;
7901;SDS011;3996;49.674;10.716;2022-12-24T11:42:05;10.83;;;2.93;;
7901;SDS011;3996;49.674;10.716;2022-12-24T11:44:31;13.43;;;3.40;;
7901;SDS011;3996;49.674;10.716;2022-12-24T11:46:57;10.47;;;3.50;;
7901;SDS011;3996;49.674;10.716;2022-12-24T11:49:26;18.03;;;4.67;;
7901;SDS011;3996;49.674;10.716;2022-12-24T11:52:09;13.20;;;3.37;;
7901;SDS011;3996;49.674;10.716;2022-12-24T11:54:38;14.03;;;3.80;;
7901;SDS011;3996;49.674;10.716;2022-12-24T11:57:15;16.90;;;4.57;;
7901;SDS011;3996;49.674;10.716;2022-12-24T11:59:47;10.70;;;3.73;;
7901;SDS011;3996;49.674;10.716;2022-12-24T12:04:43;16.50;;;3.90;;
7901;SDS011;3996;49.674;10.716;2022-12-24T12:07:14;12.13;;;3.30;;
7901;SDS011;3996;49.674;10.716;2022-12-24T12:12:16;14.43;;;3.47;;
7901;SDS011;3996;49.674;10.716;2022-12-24T12:14:49;11.73;;;3.33;;
7901;SDS011;3996;49.674;10.716;2022-12-24T12:19:56;19.70;;;9.13;;
7901;SDS011;3996;49.674;10.716;2022-12-24T12:22:41;20.40;;;8.37;;
7901;SDS011;3996;49.674;10.716;2022-12-24T12:25:21;21.33;;;7.80;;
7901;SDS011;3996;49.674;10.716;2022-12-24T12:28:21;19.90;;;9.13;;
7901;SDS011;3996;49.674;10.716;2022-12-24T12:34:12;17.47;;;7.50;;
7901;SDS011;3996;49.674;10.716;2022-12-24T12:37:00;15.50;;;6.27;;
7901;SDS011;3996;49.674;10.716;2022-12-24T12:39:32;16.90;;;5.20;;
7901;SDS011;3996;49.674;10.716;2022-12-24T12:44:48;17.67;;;7.10;;
7901;SDS011;3996;49.674;10.716;2022-12-24T12:47:27;14.10;;;6.80;;
7901;SDS011;3996;49.674;10.716;2022-12-24T12:55:26;15.67;;;4.10;;
7901;SDS011;3996;49.674;10.716;2022-12-24T12:58:07;14.57;;;3.37;;
7901;SDS011;3996;49.674;10.716;2022-12-24T13:00:48;13.67;;;3.43;;
7901;SDS011;3996;49.674;10.716;2022-12-24T13:05:51;16.50;;;4.00;;
7901;SDS011;3996;49.674;10.716;2022-12-24T13:22:32;12.10;;;3.30;;
7901;SDS011;3996;49.674;10.716;2022-12-24T13:25:01;11.67;;;3.37;;
7901;SDS011;3996;49.674;10.716;2022-12-24T13:27:28;11.87;;;3.17;;
7901;SDS011;3996;49.674;10.716;2022-12-24T13:29:57;18.80;;;4.10;;
7901;SDS011;3996;49.674;10.716;2022-12-24T13:32:48;15.73;;;3.53;;
7901;SDS011;3996;49.674;10.716;2022-12-24T13:37:43;13.23;;;3.30;;
7901;SDS011;3996;49.674;10.716;2022-12-24T13:50:37;13.63;;;3.60;;
7901;SDS011;3996;49.674;10.716;2022-12-24T13:56:07;18.20;;;4.10;;
7901;SDS011;3996;49.674;10.716;2022-12-24T13:58:45;11.87;;;3.80;;
7901;SDS011;3996;49.674;10.716;2022-12-24T14:01:31;15.90;;;3.77;;
7901;SDS011;3996;49.674;10.716;2022-12-24T14:04:04;10.37;;;3.43;;
7901;SDS011;3996;49.674;10.716;2022-12-24T14:06:36;12.33;;;4.00;;
7901;SDS011;3996;49.674;10.716;2022-12-24T14:09:09;15.43;;;3.90;;
7901;SDS011;3996;49.674;10.716;2022-12-24T14:14:34;14.87;;;3.13;;
7901;SDS011;3996;49.674;10.716;2022-12-24T14:17:02;10.13;;;3.37;;
7901;SDS011;3996;49.674;10.716;2022-12-24T14:19:51;12.40;;;3.27;;
7901;SDS011;3996;49.674;10.716;2022-12-24T14:22:24;18.10;;;3.97;;
7901;SDS011;3996;49.674;10.716;2022-12-24T14:24:58;10.07;;;3.10;;
7901;SDS011;3996;49.674;10.716;2022-12-24T14:27:36;16.27;;;4.10;;
7901;SDS011;3996;49.674;10.716;2022-12-24T14:32:50;10.17;;;3.30;;
7901;SDS011;3996;49.674;10.716;2022-12-24T14:35:18;11.73;;;3.43;;
7901;SDS011;3996;49.674;10.716;2022-12-24T14:37:56;14.33;;;3.83;;
7901;SDS011;3996;49.674;10.716;2022-12-24T14:40:30;7.70;;;2.70;;
7901;SDS011;3996;49.674;10.716;2022-12-24T14:48:49;12.57;;;3.00;;
7901;SDS011;3996;49.674;10.716;2022-12-24T14:54:27;15.20;;;3.30;;
7901;SDS011;3996;49.674;10.716;2022-12-24T14:59:55;11.63;;;3.80;;
7901;SDS011;3996;49.674;10.716;2022-12-24T15:07:46;18.87;;;4.23;;
7901;SDS011;3996;49.674;10.716;2022-12-24T15:10:28;16.00;;;4.07;;
7901;SDS011;3996;49.674;10.716;2022-12-24T15:16:39;11.67;;;3.57;;
7901;SDS011;3996;49.674;10.716;2022-12-24T15:19:06;11.57;;;3.70;;
7901;SDS011;3996;49.674;10.716;2022-12-24T15:21:47;14.63;;;3.40;;
7901;SDS011;3996;49.674;10.716;2022-12-24T15:24:26;14.13;;;4.30;;
7901;SDS011;3996;49.674;10.716;2022-12-24T15:27:01;14.70;;;3.60;;
7901;SDS011;3996;49.674;10.716;2022-12-24T15:29:38;8.87;;;3.20;;
7901;SDS011;3996;49.674;10.716;2022-12-24T15:32:09;11.03;;;3.67;;
7901;SDS011;3996;49.674;10.716;2022-12-24T15:34:41;11.13;;;3.00;;
7901;SDS011;3996;49.674;10.716;2022-12-24T15:39:52;11.43;;;3.57;;
7901;SDS011;3996;49.674;10.716;2022-12-24T15:42:19;12.87;;;5.43;;
7901;SDS011;3996;49.674;10.716;2022-12-24T15:47:36;19.50;;;9.20;;
7901;SDS011;3996;49.674;10.716;2022-12-24T15:50:14;27.90;;;14.27;;
7901;SDS011;3996;49.674;10.716;2022-12-24T15:53:04;26.87;;;13.73;;
7901;SDS011;3996;49.674;10.716;2022-12-24T15:55:41;30.87;;;15.20;;
7901;SDS011;3996;49.674;10.716;2022-12-24T15:58:22;41.27;;;20.97;;
7901;SDS011;3996;49.674;10.716;2022-12-24T16:03:37;21.70;;;10.83;;
7901;SDS011;3996;49.674;10.716;2022-12-24T16:06:18;27.70;;;13.53;;
7901;SDS011;3996;49.674;10.716;2022-12-24T16:08:45;23.47;;;12.43;;
7901;SDS011;3996;49.674;10.716;2022-12-24T16:11:32;17.97;;;8.37;;
7901;SDS011;3996;49.674;10.716;2022-12-24T16:16:46;16.47;;;7.03;;
7901;SDS011;3996;49.674;10.716;2022-12-24T16:21:48;17.20;;;7.37;;
7901;SDS011;3996;49.674;10.716;2022-12-24T16:24:29;26.53;;;11.30;;
7901;SDS011;3996;49.674;10.716;2022-12-24T16:26:55;27.53;;;14.20;;
7901;SDS011;3996;49.674;10.716;2022-12-24T16:29:22;21.73;;;10.07;;
7901;SDS011;3996;49.674;10.716;2022-12-24T16:31:52;28.07;;;13.43;;
7901;SDS011;3996;49.674;10.716;2022-12-24T16:34:23;26.73;;;13.83;;
7901;SDS011;3996;49.674;10.716;2022-12-24T16:36:51;23.33;;;10.60;;
7901;SDS011;3996;49.674;10.716;2022-12-24T16:39:18;20.93;;;11.23;;
7901;SDS011;3996;49.674;10.716;2022-12-24T16:45:39;15.33;;;5.13;;
7901;SDS011;3996;49.674;10.716;2022-12-24T16:48:43;12.57;;;4.90;;
7901;SDS011;3996;49.674;10.716;2022-12-24T16:51:11;18.80;;;5.67;;
7901;SDS011;3996;49.674;10.716;2022-12-24T16:53:37;12.90;;;4.00;;
7901;SDS011;3996;49.674;10.716;2022-12-24T16:56:03;11.63;;;4.13;;
7901;SDS011;3996;49.674;10.716;2022-12-24T16:58:28;11.03;;;4.07;;
7901;SDS011;3996;49.674;10.716;2022-12-24T17:00:54;11.47;;;3.87;;
7901;SDS011;3996;49.674;10.716;2022-12-24T17:03:20;12.67;;;4.10;;
7901;SDS011;3996;49.674;10.716;2022-12-24T17:05:46;9.83;;;4.27;;
7901;SDS011;3996;49.674;10.716;2022-12-24T17:08:11;17.00;;;6.23;;
7901;SDS011;3996;49.674;10.716;2022-12-24T17:10:37;14.50;;;5.97;;
7901;SDS011;3996;49.674;10.716;2022-12-24T17:13:04;15.70;;;8.10;;
7901;SDS011;3996;49.674;10.716;2022-12-24T17:15:30;14.70;;;5.47;;
7901;SDS011;3996;49.674;10.716;2022-12-24T17:17:56;16.13;;;4.47;;
7901;SDS011;3996;49.674;10.716;2022-12-24T17:20:21;12.87;;;4.40;;
7901;SDS011;3996;49.674;10.716;2022-12-24T17:22:47;10.50;;;4.30;;
7901;SDS011;3996;49.674;10.716;2022-12-24T17:25:13;11.73;;;4.90;;
7901;SDS011;3996;49.674;10.716;2022-12-24T17:27:39;15.70;;;5.13;;
7901;SDS011;3996;49.674;10.716;2022-12-24T17:30:05;15.80;;;5.80;;
7901;SDS011;3996;49.674;10.716;2022-12-24T17:32:32;12.03;;;5.40;;
7901;SDS011;3996;49.674;10.716;2022-12-24T17:34:58;14.53;;;5.97;;
7901;SDS011;3996;49.674;10.716;2022-12-24T17:37:24;15.70;;;6.00;;
7901;SDS011;3996;49.674;10.716;2022-12-24T17:39:52;15.97;;;5.97;;
7901;SDS011;3996;49.674;10.716;2022-12-24T17:42:18;14.33;;;4.23;;
7901;SDS011;3996;49.674;10.716;2022-12-24T17:44:44;10.33;;;4.00;;
7901;SDS011;3996;49.674;10.716;2022-12-24T17:47:10;11.67;;;4.37;;
7901;SDS011;3996;49.674;10.716;2022-12-24T17:49:35;12.03;;;4.83;;
7901;SDS011;3996;49.674;10.716;2022-12-24T17:52:01;16.57;;;5.73;;
7901;SDS011;3996;49.674;10.716;2022-12-24T17:54:28;12.67;;;4.93;;
7901;SDS011;3996;49.674;10.716;2022-12-24T17:56:54;12.20;;;5.10;;
7901;SDS011;3996;49.674;10.716;2022-12-24T17:59:20;16.43;;;4.50;;
7901;SDS011;3996;49.674;10.716;2022-12-24T18:01:46;16.17;;;4.37;;
7901;SDS011;3996;49.674;10.716;2022-12-24T18:04:12;17.13;;;4.37;;
7901;SDS011;3996;49.674;10.716;2022-12-24T18:06:38;10.90;;;3.70;;
7901;SDS011;3996;49.674;10.716;2022-12-24T18:09:04;14.07;;;3.70;;
7901;SDS011;3996;49.674;10.716;2022-12-24T18:11:31;12.57;;;3.33;;
7901;SDS011;3996;49.674;10.716;2022-12-24T18:13:59;15.57;;;4.00;;
7901;SDS011;3996;49.674;10.716;2022-12-24T18:16:30;12.87;;;3.53;;
7901;SDS011;3996;49.674;10.716;2022-12-24T18:18:56;13.50;;;3.70;;
7901;SDS011;3996;49.674;10.716;2022-12-24T18:21:23;16.30;;;5.10;;
7901;SDS011;3996;49.674;10.716;2022-12-24T18:23:50;13.13;;;4.77;;
7901;SDS011;3996;49.674;10.716;2022-12-24T18:26:18;14.70;;;4.20;;
7901;SDS011;3996;49.674;10.716;2022-12-24T18:28:44;12.20;;;3.53;;
7901;SDS011;3996;49.674;10.716;2022-12-24T18:31:12;18.27;;;4.33;;
7901;SDS011;3996;49.674;10.716;2022-12-24T18:33:40;11.20;;;3.27;;
7901;SDS011;3996;49.674;10.716;2022-12-24T18:36:08;11.87;;;3.60;;
7901;SDS011;3996;49.674;10.716;2022-12-24T18:38:35;12.90;;;4.53;;
7901;SDS011;3996;49.674;10.716;2022-12-24T18:41:08;12.23;;;5.33;;
7901;SDS011;3996;49.674;10.716;2022-12-24T18:43:38;13.17;;;4.30;;
7901;SDS011;3996;49.674;10.716;2022-12-24T18:46:08;10.13;;;3.90;;
7901;SDS011;3996;49.674;10.716;2022-12-24T18:48:36;10.53;;;4.20;;
7901;SDS011;3996;49.674;10.716;2022-12-24T18:51:02;12.30;;;3.80;;
7901;SDS011;3996;49.674;10.716;2022-12-24T18:53:28;15.63;;;4.07;;
7901;SDS011;3996;49.674;10.716;2022-12-24T18:55:53;15.07;;;3.77;;
7901;SDS011;3996;49.674;10.716;2022-12-24T18:58:19;21.20;;;3.83;;
7901;SDS011;3996;49.674;10.716;2022-12-24T19:00:45;14.93;;;3.90;;
7901;SDS011;3996;49.674;10.716;2022-12-24T19:03:11;12.20;;;4.10;;
7901;SDS011;3996;49.674;10.716;2022-12-24T19:05:37;9.80;;;4.13;;
7901;SDS011;3996;49.674;10.716;2022-12-24T19:08:02;11.03;;;3.50;;
7901;SDS011;3996;49.674;10.716;2022-12-24T19:10:29;11.10;;;3.63;;
7901;SDS011;3996;49.674;10.716;2022-12-24T19:12:54;12.10;;;3.87;;
7901;SDS011;3996;49.674;10.716;2022-12-24T19:15:20;12.60;;;3.63;;
7901;SDS011;3996;49.674;10.716;2022-12-24T19:17:45;10.90;;;3.70;;
7901;SDS011;3996;49.674;10.716;2022-12-24T19:20:11;13.30;;;3.93;;
7901;SDS011;3996;49.674;10.716;2022-12-24T19:22:37;9.40;;;4.00;;
7901;SDS011;3996;49.674;10.716;2022-12-24T19:25:02;14.30;;;4.47;;
7901;SDS011;3996;49.674;10.716;2022-12-24T19:27:28;10.73;;;4.43;;
7901;SDS011;3996;49.674;10.716;2022-12-24T19:29:54;12.17;;;4.40;;
7901;SDS011;3996;49.674;10.716;2022-12-24T19:32:19;16.10;;;4.60;;
7901;SDS011;3996;49.674;10.716;2022-12-24T19:34:45;14.63;;;3.93;;
7901;SDS011;3996;49.674;10.716;2022-12-24T19:37:10;14.30;;;5.07;;
7901;SDS011;3996;49.674;10.716;2022-12-24T19:39:36;13.43;;;4.20;;
7901;SDS011;3996;49.674;10.716;2022-12-24T19:42:02;14.73;;;4.30;;
7901;SDS011;3996;49.674;10.716;2022-12-24T19:44:28;9.23;;;4.13;;
7901;SDS011;3996;49.674;10.716;2022-12-24T19:46:53;19.07;;;4.50;;
7901;SDS011;3996;49.674;10.716;2022-12-24T19:49:19;12.50;;;3.97;;
7901;SDS011;3996;49.674;10.716;2022-12-24T19:51:45;12.27;;;3.83;;
7901;SDS011;3996;49.674;10.716;2022-12-24T19:54:10;8.53;;;3.00;;
7901;SDS011;3996;49.674;10.716;2022-12-24T19:56:37;15.03;;;3.47;;
7901;SDS011;3996;49.674;10.716;2022-12-24T19:59:03;15.37;;;3.77;;
7901;SDS011;3996;49.674;10.716;2022-12-24T20:01:30;15.40;;;3.83;;
7901;SDS011;3996;49.674;10.716;2022-12-24T20:03:58;13.43;;;4.03;;
7901;SDS011;3996;49.674;10.716;2022-12-24T20:06:25;15.17;;;3.60;;
7901;SDS011;3996;49.674;10.716;2022-12-24T20:08:59;15.33;;;4.40;;
7901;SDS011;3996;49.674;10.716;2022-12-24T20:11:29;13.20;;;4.60;;
7901;SDS011;3996;49.674;10.716;2022-12-24T20:13:56;15.57;;;5.57;;
7901;SDS011;3996;49.674;10.716;2022-12-24T20:16:23;17.93;;;6.30;;
7901;SDS011;3996;49.674;10.716;2022-12-24T20:18:52;21.97;;;5.90;;
7901;SDS011;3996;49.674;10.716;2022-12-24T20:21:19;12.67;;;4.80;;
7901;SDS011;3996;49.674;10.716;2022-12-24T20:23:45;13.97;;;5.40;;
7901;SDS011;3996;49.674;10.716;2022-12-24T20:26:12;15.20;;;5.37;;
7901;SDS011;3996;49.674;10.716;2022-12-24T20:28:39;14.03;;;5.40;;
7901;SDS011;3996;49.674;10.716;2022-12-24T20:31:12;12.97;;;5.30;;
7901;SDS011;3996;49.674;10.716;2022-12-24T20:33:48;10.83;;;4.57;;
7901;SDS011;3996;49.674;10.716;2022-12-24T20:36:16;13.53;;;5.07;;
7901;SDS011;3996;49.674;10.716;2022-12-24T20:38:43;17.50;;;8.30;;
7901;SDS011;3996;49.674;10.716;2022-12-24T20:41:11;21.43;;;11.10;;
7901;SDS011;3996;49.674;10.716;2022-12-24T20:43:39;15.23;;;6.37;;
7901;SDS011;3996;49.674;10.716;2022-12-24T20:46:06;19.10;;;8.37;;
7901;SDS011;3996;49.674;10.716;2022-12-24T20:48:32;22.37;;;8.90;;
7901;SDS011;3996;49.674;10.716;2022-12-24T20:50:58;16.40;;;8.40;;
7901;SDS011;3996;49.674;10.716;2022-12-24T20:53:24;22.47;;;9.73;;
7901;SDS011;3996;49.674;10.716;2022-12-24T20:55:51;18.53;;;8.60;;
7901;SDS011;3996;49.674;10.716;2022-12-24T20:58:17;18.70;;;7.30;;
7901;SDS011;3996;49.674;10.716;2022-12-24T21:00:43;16.97;;;7.23;;
7901;SDS011;3996;49.674;10.716;2022-12-24T21:03:10;21.90;;;7.70;;
7901;SDS011;3996;49.674;10.716;2022-12-24T21:05:38;15.80;;;6.43;;
7901;SDS011;3996;49.674;10.716;2022-12-24T21:08:05;16.70;;;6.80;;
7901;SDS011;3996;49.674;10.716;2022-12-24T21:10:30;12.07;;;6.13;;
7901;SDS011;3996;49.674;10.716;2022-12-24T21:12:56;14.93;;;5.67;;
7901;SDS011;3996;49.674;10.716;2022-12-24T21:15:30;13.30;;;5.70;;
7901;SDS011;3996;49.674;10.716;2022-12-24T21:17:57;14.60;;;6.13;;
7901;SDS011;3996;49.674;10.716;2022-12-24T21:20:24;11.23;;;4.43;;
7901;SDS011;3996;49.674;10.716;2022-12-24T21:22:55;13.73;;;4.67;;
7901;SDS011;3996;49.674;10.716;2022-12-24T21:25:22;12.43;;;4.83;;
7901;SDS011;3996;49.674;10.716;2022-12-24T21:27:48;17.00;;;4.50;;
7901;SDS011;3996;49.674;10.716;2022-12-24T21:30:15;16.00;;;5.40;;
7901;SDS011;3996;49.674;10.716;2022-12-24T21:32:41;14.87;;;5.20;;
7901;SDS011;3996;49.674;10.716;2022-12-24T21:35:07;14.20;;;5.27;;
7901;SDS011;3996;49.674;10.716;2022-12-24T21:37:34;12.70;;;4.57;;
7901;SDS011;3996;49.674;10.716;2022-12-24T21:40:00;13.50;;;5.00;;
7901;SDS011;3996;49.674;10.716;2022-12-24T21:42:25;14.53;;;5.00;;
7901;SDS011;3996;49.674;10.716;2022-12-24T21:44:51;12.33;;;5.07;;
7901;SDS011;3996;49.674;10.716;2022-12-24T21:47:17;12.83;;;5.03;;
7901;SDS011;3996;49.674;10.716;2022-12-24T21:49:43;11.13;;;4.53;;
7901;SDS011;3996;49.674;10.716;2022-12-24T21:52:27;10.27;;;4.57;;
7901;SDS011;3996;49.674;10.716;2022-12-24T21:54:52;21.53;;;6.07;;
7901;SDS011;3996;49.674;10.716;2022-12-24T21:57:18;17.47;;;6.23;;
7901;SDS011;3996;49.674;10.716;2022-12-24T22:00:03;19.27;;;6.17;;
7901;SDS011;3996;49.674;10.716;2022-12-24T22:02:52;13.13;;;5.17;;
7901;SDS011;3996;49.674;10.716;2022-12-24T22:05:19;12.07;;;5.43;;
7901;SDS011;3996;49.674;10.716;2022-12-24T22:07:45;16.50;;;5.57;;
7901;SDS011;3996;49.674;10.716;2022-12-24T22:10:30;12.90;;;5.43;;
7901;SDS011;3996;49.674;10.716;2022-12-24T22:13:14;11.57;;;5.30;;
7901;SDS011;3996;49.674;10.716;2022-12-24T22:15:41;12.47;;;5.77;;
7901;SDS011;3996;49.674;10.716;2022-12-24T22:18:08;14.57;;;6.13;;
7901;SDS011;3996;49.674;10.716;2022-12-24T22:20:35;14.40;;;6.37;;
7901;SDS011;3996;49.674;10.716;2022-12-24T22:23:01;13.53;;;6.00;;
7901;SDS011;3996;49.674;10.716;2022-12-24T22:25:30;13.93;;;6.30;;
7901;SDS011;3996;49.674;10.716;2022-12-24T22:27:56;16.77;;;6.10;;
7901;SDS011;3996;49.674;10.716;2022-12-24T22:30:21;16.30;;;6.43;;
7901;SDS011;3996;49.674;10.716;2022-12-24T22:32:47;16.00;;;6.53;;
7901;SDS011;3996;49.674;10.716;2022-12-24T22:35:13;15.40;;;6.40;;
7901;SDS011;3996;49.674;10.716;2022-12-24T22:37:38;13.57;;;6.40;;
7901;SDS011;3996;49.674;10.716;2022-12-24T22:40:04;23.10;;;7.03;;
7901;SDS011;3996;49.674;10.716;2022-12-24T22:42:31;16.67;;;6.60;;
7901;SDS011;3996;49.674;10.716;2022-12-24T22:44:57;14.93;;;6.93;;
7901;SDS011;3996;49.674;10.716;2022-12-24T22:47:23;18.60;;;6.77;;
7901;SDS011;3996;49.674;10.716;2022-12-24T22:49:49;14.43;;;6.80;;
7901;SDS011;3996;49.674;10.716;2022-12-24T22:52:14;15.17;;;7.53;;
7901;SDS011;3996;49.674;10.716;2022-12-24T22:54:40;15.20;;;6.37;;
7901;SDS011;3996;49.674;10.716;2022-12-24T22:57:05;14.87;;;6.63;;
7901;SDS011;3996;49.674;10.716;2022-12-24T22:59:31;15.30;;;6.90;;
7901;SDS011;3996;49.674;10.716;2022-12-24T23:01:57;13.53;;;6.47;;
7901;SDS011;3996;49.674;10.716;2022-12-24T23:04:23;16.27;;;6.57;;
7901;SDS011;3996;49.674;10.716;2022-12-24T23:06:48;15.03;;;6.30;;
7901;SDS011;3996;49.674;10.716;2022-12-24T23:09:15;12.23;;;5.77;;
7901;SDS011;3996;49.674;10.716;2022-12-24T23:11:41;9.20;;;5.63;;
7901;SDS011;3996;49.674;10.716;2022-12-24T23:14:12;14.63;;;6.87;;
7901;SDS011;3996;49.674;10.716;2022-12-24T23:16:59;15.30;;;7.10;;
7901;SDS011;3996;49.674;10.716;2022-12-24T23:19:24;13.10;;;6.83;;
7901;SDS011;3996;49.674;10.716;2022-12-24T23:21:50;17.67;;;6.80;;
7901;SDS011;3996;49.674;10.716;2022-12-24T23:24:15;14.77;;;6.57;;
7901;SDS011;3996;49.674;10.716;2022-12-24T23:26:41;14.97;;;6.30;;
7901;SDS011;3996;49.674;10.716;2022-12-24T23:29:07;14.23;;;6.03;;
7901;SDS011;3996;49.674;10.716;2022-12-24T23:31:32;16.77;;;6.50;;
7901;SDS011;3996;49.674;10.716;2022-12-24T23:34:01;12.87;;;6.60;;
7901;SDS011;3996;49.674;10.716;2022-12-24T23:36:27;15.77;;;5.70;;
7901;SDS011;3996;49.674;10.716;2022-12-24T23:38:53;14.13;;;6.30;;
7901;SDS011;3996;49.674;10.716;2022-12-24T23:41:19;12.00;;;5.97;;
7901;SDS011;3996;49.674;10.716;2022-12-24T23:43:44;12.83;;;5.70;;
7901;SDS011;3996;49.674;10.716;2022-12-24T23:46:14;12.00;;;6.10;;
7901;SDS011;3996;49.674;10.716;2022-12-24T23:48:40;14.90;;;5.90;;
7901;SDS011;3996;49.674;10.716;2022-12-24T23:51:14;12.20;;;6.03;;
7901;SDS011;3996;49.674;10.716;2022-12-24T23:53:41;13.10;;;6.53;;
7901;SDS011;3996;49.674;10.716;2022-12-24T23:56:07;15.77;;;6.83;;
7901;SDS011;3996;49.674;10.716;2022-12-24T23:58:35;13.93;;;7.20;;
